createdAt,value
2018-12-08T00:01:01.982Z,7.12
2018-12-08T00:03:31.777Z,7.25
2018-12-08T00:06:01.515Z,7.27
2018-12-08T00:08:31.560Z,7.32
2018-12-08T00:11:01.388Z,7.20
2018-12-08T00:59:13.793Z,7.16
2018-12-08T01:01:43.734Z,7.31
2018-12-08T01:04:13.541Z,7.33
2018-12-08T01:06:43.349Z,7.30
2018-12-08T01:17:12.122Z,7.19
2018-12-08T01:19:40.238Z,7.20
2018-12-08T01:22:10.278Z,7.07
2018-12-08T01:37:58.735Z,6.98
2018-12-08T01:40:28.505Z,6.85
2018-12-08T01:53:40.175Z,6.86
2018-12-08T01:56:09.986Z,6.79
2018-12-08T01:58:39.755Z,6.78
2018-12-08T02:01:09.621Z,6.83
2018-12-08T02:03:39.395Z,6.85
2018-12-08T02:11:26.058Z,6.84
2018-12-08T02:13:55.857Z,6.67
2018-12-08T02:16:25.628Z,6.66
2018-12-08T02:18:55.686Z,6.68
2018-12-08T02:21:25.472Z,6.60
2018-12-08T02:23:55.223Z,6.63
2018-12-08T02:37:12.628Z,7.12
2018-12-08T02:39:42.440Z,7.14
2018-12-08T02:42:12.220Z,7.16
2018-12-08T02:44:42.064Z,7.08
2018-12-08T02:47:11.909Z,6.97
2018-12-08T02:49:42.023Z,7.09
2018-12-08T02:52:11.794Z,7.13
2018-12-08T02:54:41.595Z,7.16
2018-12-08T02:57:11.423Z,7.14
2018-12-08T02:59:41.197Z,7.17
2018-12-08T03:02:11.333Z,7.18
2018-12-08T03:12:40.825Z,7.17
2018-12-08T03:15:24.950Z,7.23
2018-12-08T03:17:54.744Z,7.22
2018-12-08T03:28:14.490Z,7.41
2018-12-08T03:30:45.470Z,7.43
2018-12-08T03:51:57.087Z,7.36
2018-12-08T04:05:02.138Z,7.47
2018-12-08T04:07:32.189Z,7.49
2018-12-08T04:10:02.230Z,7.56
2018-12-08T04:12:32.009Z,7.49
2018-12-08T04:15:01.753Z,7.46
2018-12-08T04:17:31.542Z,7.31
2018-12-08T04:20:01.689Z,7.24
2018-12-08T04:22:31.502Z,7.21
2018-12-08T04:25:01.248Z,7.15
2018-12-08T04:27:32.510Z,7.12
2018-12-08T04:30:02.357Z,7.23
2018-12-08T04:32:32.150Z,7.28
2018-12-08T04:35:01.958Z,7.27
2018-12-08T04:37:31.722Z,7.31
2018-12-08T04:40:01.633Z,7.33
2018-12-08T04:42:31.447Z,7.28
2018-12-08T04:45:01.276Z,7.17
2018-12-08T04:47:31.346Z,7.05
2018-12-08T04:50:01.132Z,7.08
2018-12-08T04:52:31.479Z,7.10
2018-12-08T04:55:01.577Z,7.05
2018-12-08T04:57:31.400Z,7.06
2018-12-08T05:00:01.175Z,7.02
2018-12-08T05:02:31.056Z,6.95
2018-12-08T05:05:00.842Z,6.96
2018-12-08T05:07:30.683Z,6.93
2018-12-08T05:10:00.452Z,7.11
2018-12-08T05:12:30.254Z,7.15
2018-12-08T05:15:00.277Z,7.25
2018-12-08T05:17:30.068Z,7.31
2018-12-08T05:19:59.815Z,7.31
2018-12-08T05:22:29.595Z,7.33
2018-12-08T05:24:59.408Z,7.36
2018-12-08T05:27:29.270Z,7.37
2018-12-08T05:29:59.097Z,7.44
2018-12-08T05:32:28.876Z,7.47
2018-12-08T05:34:58.721Z,7.46
2018-12-08T05:37:28.493Z,7.48
2018-12-08T05:39:58.285Z,7.48
2018-12-08T05:42:28.141Z,7.57
2018-12-08T05:44:57.907Z,7.58
2018-12-08T05:47:27.736Z,7.60
2018-12-08T05:49:57.499Z,7.60
2018-12-08T05:52:27.285Z,7.65
2018-12-08T05:54:57.104Z,7.65
2018-12-08T05:57:26.889Z,7.45
2018-12-08T05:59:56.671Z,7.24
2018-12-08T06:02:26.769Z,7.13
2018-12-08T06:04:56.821Z,7.00
2018-12-08T06:07:26.617Z,7.00
2018-12-08T06:09:56.407Z,7.00
2018-12-08T06:12:26.483Z,6.99
2018-12-08T06:14:56.326Z,6.96
2018-12-08T06:17:26.086Z,6.89
2018-12-08T06:19:56.015Z,6.88
2018-12-08T06:22:25.828Z,6.87
2018-12-08T06:24:56.009Z,6.85
2018-12-08T06:27:55.792Z,6.82
2018-12-08T06:30:25.618Z,6.76
2018-12-08T06:32:55.470Z,6.67
2018-12-08T06:35:25.229Z,6.61
2018-12-08T06:37:55.102Z,6.63
2018-12-08T06:40:29.147Z,6.57
2018-12-08T06:42:56.639Z,6.45
2018-12-08T06:45:26.551Z,6.44
2018-12-08T06:47:56.339Z,6.46
2018-12-08T06:50:26.434Z,6.40
2018-12-08T06:52:56.265Z,6.43
2018-12-08T06:55:26.166Z,6.44
2018-12-08T06:57:56.245Z,6.49
2018-12-08T07:00:26.090Z,6.51
2018-12-08T07:02:56.026Z,6.51
2018-12-08T07:05:25.912Z,6.41
2018-12-08T07:07:55.725Z,6.30
2018-12-08T07:10:25.545Z,6.28
2018-12-08T07:12:55.358Z,6.29
2018-12-08T07:15:25.130Z,6.28
2018-12-08T07:17:55.495Z,6.36
2018-12-08T07:20:25.267Z,6.36
2018-12-08T07:22:55.033Z,6.30
2018-12-08T07:25:24.849Z,6.32
2018-12-08T07:27:54.625Z,6.38
2018-12-08T07:30:24.685Z,6.44
2018-12-08T07:32:54.736Z,6.45
2018-12-08T07:35:24.598Z,6.40
2018-12-08T07:37:54.357Z,6.31
2018-12-08T07:40:24.170Z,6.36
2018-12-08T07:42:54.218Z,6.40
2018-12-08T07:45:24.051Z,6.50
2018-12-08T07:47:53.867Z,6.54
2018-12-08T07:50:24.002Z,6.60
2018-12-08T07:52:53.767Z,6.57
2018-12-08T07:55:23.595Z,6.49
2018-12-08T07:57:53.361Z,6.37
2018-12-08T08:00:23.178Z,6.27
2018-12-08T08:02:53.245Z,6.25
2018-12-08T08:05:23.077Z,6.32
2018-12-08T08:07:53.198Z,6.41
2018-12-08T08:10:23.008Z,6.52
2018-12-08T08:12:52.799Z,6.53
2018-12-08T08:15:22.674Z,6.57
2018-12-08T08:17:52.428Z,6.60
2018-12-08T08:20:22.201Z,6.56
2018-12-08T08:22:52.252Z,6.69
2018-12-08T08:25:22.065Z,6.83
2018-12-08T08:27:51.810Z,6.95
2018-12-08T08:30:21.607Z,7.13
2018-12-08T08:32:51.651Z,7.29
2018-12-08T08:35:21.486Z,7.45
2018-12-08T08:37:51.258Z,7.48
2018-12-08T08:40:21.035Z,7.49
2018-12-08T08:42:50.845Z,7.47
2018-12-08T08:45:20.825Z,7.49
2018-12-08T08:47:50.596Z,7.55
2018-12-08T08:50:20.378Z,7.62
2018-12-08T08:52:50.698Z,7.62
2018-12-08T08:55:20.557Z,7.51
2018-12-08T08:57:50.341Z,7.46
2018-12-08T09:00:20.154Z,7.54
2018-12-08T09:02:50.202Z,7.50
2018-12-08T09:05:19.988Z,7.50
2018-12-08T09:07:49.751Z,7.54
2018-12-08T09:10:19.547Z,7.51
2018-12-08T09:12:49.435Z,7.36
2018-12-08T09:15:19.208Z,7.13
2018-12-08T09:17:48.964Z,7.08
2018-12-08T09:20:18.812Z,7.11
2018-12-08T09:22:48.559Z,7.22
2018-12-08T09:25:18.620Z,7.31
2018-12-08T09:27:49.268Z,7.37
2018-12-08T09:30:19.166Z,7.51
2018-12-08T09:32:49.244Z,7.67
2018-12-08T09:35:19.021Z,7.74
2018-12-08T09:37:48.794Z,7.70
2018-12-08T09:40:18.913Z,7.75
2018-12-08T09:42:48.686Z,7.84
2018-12-08T09:45:18.491Z,7.82
2018-12-08T09:47:48.232Z,7.64
2018-12-08T09:50:18.074Z,7.56
2018-12-08T09:53:09.998Z,7.53
2018-12-08T09:55:39.862Z,7.60
2018-12-08T09:58:09.918Z,7.65
2018-12-08T10:00:39.923Z,7.74
2018-12-08T10:03:09.700Z,7.90
2018-12-08T10:05:39.466Z,8.05
2018-12-08T10:08:09.543Z,8.15
2018-12-08T10:10:39.387Z,8.29
2018-12-08T10:13:09.200Z,8.72
2018-12-08T10:15:38.985Z,8.81
2018-12-08T10:18:08.783Z,8.89
2018-12-08T10:20:38.580Z,8.92
2018-12-08T10:23:08.351Z,8.74
2018-12-08T10:25:38.151Z,8.67
2018-12-08T10:28:07.904Z,8.72
2018-12-08T10:30:37.703Z,8.72
2018-12-08T10:33:07.470Z,8.80
2018-12-08T10:35:37.270Z,8.83
2018-12-08T10:38:07.461Z,8.85
2018-12-08T10:40:37.266Z,9.05
2018-12-08T10:43:07.118Z,9.08
2018-12-08T10:45:36.996Z,9.20
2018-12-08T10:48:06.824Z,9.29
2018-12-08T10:50:36.628Z,9.29
2018-12-08T10:53:06.413Z,9.34
2018-12-08T10:55:36.274Z,9.41
2018-12-08T10:58:06.057Z,9.44
2018-12-08T11:00:52.965Z,9.45
2018-12-08T11:03:29.631Z,9.44
2018-12-08T11:05:59.444Z,9.46
2018-12-08T11:08:29.516Z,9.41
2018-12-08T11:10:59.345Z,9.54
2018-12-08T11:13:29.078Z,9.59
2018-12-08T11:15:59.162Z,9.62
2018-12-08T11:18:29.062Z,9.56
2018-12-08T11:20:59.131Z,9.16
2018-12-08T11:23:29.214Z,8.90
2018-12-08T11:25:59.299Z,8.83
2018-12-08T11:28:29.076Z,8.84
2018-12-08T11:30:58.989Z,8.82
2018-12-08T11:33:29.041Z,8.80
2018-12-08T11:35:58.828Z,8.70
2018-12-08T11:38:28.642Z,8.72
2018-12-08T11:40:58.476Z,8.67
2018-12-08T11:43:28.543Z,8.67
2018-12-08T11:45:58.612Z,8.75
2018-12-08T11:48:28.397Z,8.83
2018-12-08T11:50:58.184Z,8.79
2018-12-08T11:53:27.946Z,8.75
2018-12-08T11:55:57.724Z,8.76
2018-12-08T11:58:27.551Z,8.81
2018-12-08T12:00:57.276Z,8.81
2018-12-08T12:03:27.038Z,8.83
2018-12-08T12:05:57.134Z,8.94
2018-12-08T12:08:26.909Z,8.94
2018-12-08T12:10:56.713Z,9.06
2018-12-08T12:13:26.512Z,9.10
2018-12-08T12:15:56.312Z,9.11
2018-12-08T12:18:26.070Z,9.21
2018-12-08T12:20:56.140Z,9.23
2018-12-08T12:23:25.926Z,9.29
2018-12-08T12:25:55.722Z,9.34
2018-12-08T12:28:25.530Z,9.40
2018-12-08T12:30:55.672Z,9.41
2018-12-08T12:33:25.426Z,9.50
2018-12-08T12:35:55.229Z,9.55
2018-12-08T12:38:25.263Z,9.62
2018-12-08T12:40:55.057Z,9.64
2018-12-08T12:43:24.915Z,9.65
2018-12-08T12:45:54.698Z,9.71
2018-12-08T12:48:24.478Z,9.73
2018-12-08T12:50:54.667Z,9.75
2018-12-08T12:53:24.455Z,9.76
2018-12-08T12:55:54.246Z,9.76
2018-12-08T12:58:24.011Z,9.71
2018-12-08T13:00:53.919Z,9.77
2018-12-08T13:03:23.691Z,9.74
2018-12-08T13:05:53.467Z,9.73
2018-12-08T13:08:23.255Z,9.77
2018-12-08T13:10:53.033Z,9.78
2018-12-08T13:13:22.854Z,9.79
2018-12-08T13:15:52.607Z,9.82
2018-12-08T13:18:22.380Z,9.81
2018-12-08T13:20:52.414Z,9.78
2018-12-08T13:23:22.207Z,9.74
2018-12-08T13:25:51.988Z,9.77
2018-12-08T13:28:21.848Z,9.74
2018-12-08T13:30:51.627Z,9.77
2018-12-08T13:33:21.402Z,9.76
2018-12-08T13:35:56.207Z,9.76
2018-12-08T13:38:25.981Z,9.81
2018-12-08T13:40:55.734Z,9.82
2018-12-08T13:43:25.540Z,9.84
2018-12-08T13:45:55.361Z,9.86
2018-12-08T13:48:26.418Z,9.87
2018-12-08T13:50:56.167Z,9.85
2018-12-08T13:53:25.974Z,9.84
2018-12-08T13:55:55.734Z,9.98
2018-12-08T13:58:25.767Z,9.96
2018-12-08T14:00:55.845Z,9.94
2018-12-08T14:03:25.655Z,9.98
2018-12-08T14:05:55.467Z,10.03
2018-12-08T14:08:25.689Z,10.00
2018-12-08T14:10:55.445Z,9.97
2018-12-08T14:13:25.250Z,10.02
2018-12-08T14:15:55.066Z,10.02
2018-12-08T14:18:34.682Z,9.99
2018-12-08T14:21:06.456Z,10.01
2018-12-08T14:23:36.349Z,10.04
2018-12-08T14:26:07.621Z,9.96
2018-12-08T14:28:37.814Z,9.97
2018-12-08T14:31:08.190Z,9.97
2018-12-08T14:33:38.857Z,9.99
2018-12-08T14:36:09.134Z,9.94
2018-12-08T14:38:39.025Z,9.81
2018-12-08T14:41:08.915Z,9.85
2018-12-08T14:43:53.030Z,9.91
2018-12-08T14:46:29.604Z,10.02
2018-12-08T14:48:59.385Z,9.93
2018-12-08T14:51:29.144Z,9.96
2018-12-08T14:54:00.946Z,9.96
2018-12-08T14:56:31.105Z,9.96
2018-12-08T14:59:01.459Z,9.94
2018-12-08T15:01:31.227Z,9.94
2018-12-08T15:04:01.008Z,10.02
2018-12-08T15:06:30.805Z,9.97
2018-12-08T15:09:00.905Z,10.08
2018-12-08T15:11:30.725Z,10.11
2018-12-08T15:14:00.530Z,10.03
2018-12-08T15:16:30.292Z,10.02
2018-12-08T15:19:00.098Z,9.98
2018-12-08T15:21:29.936Z,10.05
2018-12-08T15:23:59.708Z,10.08
2018-12-08T15:26:29.550Z,10.07
2018-12-08T15:28:59.407Z,10.00
2018-12-08T15:31:29.163Z,9.99
2018-12-08T15:33:59.277Z,10.02
2018-12-08T15:36:30.803Z,10.04
2018-12-08T15:39:00.998Z,10.10
2018-12-08T15:41:30.765Z,10.10
2018-12-08T15:44:00.561Z,10.06
2018-12-08T15:46:30.325Z,10.04
2018-12-08T15:49:00.123Z,10.07
2018-12-08T15:51:29.911Z,10.08
2018-12-08T15:54:00.811Z,10.00
2018-12-08T15:56:30.872Z,9.96
2018-12-08T15:59:00.690Z,9.96
2018-12-08T16:01:30.473Z,10.11
2018-12-08T16:04:00.590Z,10.08
2018-12-08T16:06:30.409Z,10.03
2018-12-08T16:09:00.257Z,10.09
2018-12-08T16:11:30.589Z,10.08
2018-12-08T16:14:00.409Z,10.12
2018-12-08T16:16:30.172Z,10.10
2018-12-08T16:19:00.016Z,10.16
2018-12-08T16:21:32.240Z,10.31
2018-12-08T16:24:02.332Z,10.33
2018-12-08T16:26:32.166Z,10.38
2018-12-08T16:29:02.024Z,10.39
2018-12-08T16:31:31.869Z,10.37
2018-12-08T16:34:01.725Z,10.32
2018-12-08T16:36:31.963Z,10.31
2018-12-08T16:39:01.903Z,10.24
2018-12-08T16:41:32.112Z,10.20
2018-12-08T16:44:02.053Z,10.15
2018-12-08T16:46:32.004Z,10.10
2018-12-08T16:49:01.964Z,10.03
2018-12-08T16:51:31.896Z,10.00
2018-12-08T16:54:03.536Z,9.98
2018-12-08T16:56:33.479Z,9.94
2018-12-08T16:59:03.302Z,9.92
2018-12-08T17:01:33.521Z,9.82
2018-12-08T17:04:03.399Z,9.78
2018-12-08T17:06:33.824Z,9.80
2018-12-08T17:09:03.919Z,9.82
2018-12-08T17:11:33.806Z,9.80
2018-12-08T17:14:03.636Z,9.75
2018-12-08T17:16:34.011Z,9.65
2018-12-08T17:19:04.100Z,9.46
2018-12-08T17:21:34.259Z,9.26
2018-12-08T17:24:04.053Z,9.12
2018-12-08T17:26:33.966Z,9.11
2018-12-08T17:29:03.855Z,9.11
2018-12-08T17:31:33.793Z,9.06
2018-12-08T17:34:03.697Z,9.14
2018-12-08T17:36:33.851Z,9.20
2018-12-08T17:41:32.953Z,9.26
2018-12-08T17:44:03.618Z,9.26
2018-12-08T17:46:33.665Z,9.27
2018-12-08T17:49:06.732Z,9.32
2018-12-08T17:51:36.781Z,9.36
2018-12-08T17:54:06.895Z,9.38
2018-12-08T17:56:36.678Z,9.40
2018-12-08T17:59:06.769Z,9.40
2018-12-08T18:01:36.578Z,9.44
2018-12-08T18:04:06.372Z,9.47
2018-12-08T18:06:36.186Z,9.47
2018-12-08T18:09:07.756Z,9.52
2018-12-08T18:11:37.572Z,9.51
2018-12-08T18:14:07.333Z,9.48
2018-12-08T18:16:37.148Z,9.48
2018-12-08T18:19:06.958Z,9.45
2018-12-08T18:21:36.846Z,9.43
2018-12-08T18:24:06.656Z,9.44
2018-12-08T18:26:36.463Z,9.30
2018-12-08T18:29:06.225Z,9.16
2018-12-08T18:31:36.036Z,9.13
2018-12-08T18:34:05.909Z,9.11
2018-12-08T18:36:36.080Z,9.10
2018-12-08T18:39:07.570Z,9.07
2018-12-08T18:41:37.406Z,9.09
2018-12-08T18:44:07.169Z,9.00
2018-12-08T18:46:37.028Z,8.94
2018-12-08T18:49:06.785Z,8.99
2018-12-08T18:51:36.784Z,8.99
2018-12-08T18:54:06.591Z,8.97
2018-12-08T18:56:36.457Z,9.02
2018-12-08T18:59:06.363Z,9.12
2018-12-08T19:01:36.282Z,9.19
2018-12-08T19:04:06.247Z,9.21
2018-12-08T19:06:36.138Z,9.22
2018-12-08T19:09:07.047Z,9.29
2018-12-08T19:11:36.835Z,9.34
2018-12-08T19:14:06.725Z,9.39
2018-12-08T19:16:36.535Z,9.41
2018-12-08T19:19:06.377Z,9.41
2018-12-08T19:21:36.158Z,9.50
2018-12-08T19:24:06.020Z,9.54
2018-12-08T19:26:35.816Z,9.62
2018-12-08T19:29:05.690Z,9.64
2018-12-08T19:31:35.507Z,9.65
2018-12-08T19:34:05.280Z,9.69
2018-12-08T19:36:35.386Z,9.73
2018-12-08T19:39:06.792Z,9.79
2018-12-08T19:41:36.703Z,9.89
2018-12-08T19:44:06.525Z,9.93
2018-12-08T19:46:36.393Z,9.96
2018-12-08T19:49:06.227Z,9.94
2018-12-08T19:51:36.154Z,9.94
2018-12-08T19:54:06.052Z,9.98
2018-12-08T19:56:35.917Z,10.01
2018-12-08T19:59:05.958Z,9.98
2018-12-08T20:01:36.089Z,9.94
2018-12-08T20:04:06.273Z,9.97
2018-12-08T20:06:36.318Z,9.81
2018-12-08T20:09:07.642Z,9.68
2018-12-08T20:11:37.421Z,9.58
2018-12-08T20:14:07.592Z,9.56
2018-12-08T20:16:38.088Z,9.51
2018-12-08T20:19:08.220Z,9.52
2018-12-08T20:21:38.035Z,9.49
2018-12-08T20:24:07.900Z,9.52
2018-12-08T20:26:37.769Z,9.48
2018-12-08T20:29:09.111Z,9.49
2018-12-08T20:31:38.946Z,9.54
2018-12-08T20:34:08.781Z,9.55
2018-12-08T20:36:38.928Z,9.59
2018-12-08T20:39:08.732Z,9.61
2018-12-08T20:41:38.594Z,9.65
2018-12-08T20:44:08.396Z,9.75
2018-12-08T20:46:38.211Z,9.88
2018-12-08T20:49:08.024Z,9.92
2018-12-08T20:51:37.893Z,10.02
2018-12-08T20:54:07.811Z,10.11
2018-12-08T20:56:37.591Z,10.08
2018-12-08T20:59:07.403Z,10.07
2018-12-08T21:01:37.221Z,9.99
2018-12-08T21:04:07.096Z,9.90
2018-12-08T21:06:37.017Z,9.94
2018-12-08T21:09:07.566Z,9.98
2018-12-08T21:11:37.423Z,10.15
2018-12-08T21:14:07.221Z,10.24
2018-12-08T21:16:37.124Z,10.32
2018-12-08T21:19:06.958Z,10.43
2018-12-08T21:21:36.737Z,10.48
2018-12-08T21:24:06.566Z,10.58
2018-12-08T21:26:36.421Z,10.56
2018-12-08T21:29:06.185Z,10.21
2018-12-08T21:31:36.025Z,9.91
2018-12-08T21:34:06.077Z,9.91
2018-12-08T21:36:35.899Z,9.67
2018-12-08T21:39:07.078Z,9.50
2018-12-08T21:41:36.880Z,9.48
2018-12-08T21:44:07.916Z,9.66
2018-12-08T21:46:37.826Z,9.71
2018-12-08T21:49:07.857Z,9.72
2018-12-08T21:51:37.654Z,9.73
2018-12-08T21:54:07.546Z,9.79
2018-12-08T21:56:37.671Z,9.93
2018-12-08T21:59:07.454Z,10.07
2018-12-08T22:01:37.243Z,10.01
2018-12-08T22:04:07.031Z,9.92
2018-12-08T22:06:36.818Z,9.99
2018-12-08T22:09:07.925Z,10.06
2018-12-08T22:11:37.761Z,10.13
2018-12-08T22:14:07.840Z,10.20
2018-12-08T22:16:37.617Z,10.24
2018-12-08T22:19:07.475Z,10.34
2018-12-08T22:21:37.632Z,10.58
2018-12-08T22:24:07.456Z,10.67
2018-12-08T22:26:37.324Z,10.74
2018-12-08T22:29:07.121Z,10.70
2018-12-08T22:31:37.455Z,10.67
2018-12-08T22:34:07.241Z,10.64
2018-12-08T22:36:37.034Z,10.60
2018-12-08T22:39:08.395Z,10.59
2018-12-08T22:41:38.174Z,10.59
2018-12-08T22:44:07.969Z,10.51
2018-12-08T22:46:37.767Z,10.54
2018-12-08T22:49:07.614Z,10.47
2018-12-08T22:51:37.434Z,10.32
2018-12-08T22:54:07.311Z,10.14
2018-12-08T22:56:37.367Z,10.08
2018-12-08T22:59:07.338Z,10.04
2018-12-08T23:01:37.103Z,9.95
2018-12-08T23:04:07.209Z,9.74
2018-12-08T23:06:37.623Z,9.85
2018-12-08T23:09:07.715Z,9.91
2018-12-08T23:11:37.504Z,9.87
2018-12-08T23:14:07.309Z,10.14
2018-12-08T23:16:37.138Z,10.11
2018-12-08T23:19:43.875Z,10.20
2018-12-08T23:22:12.383Z,10.20
2018-12-08T23:24:40.871Z,10.19
2018-12-08T23:27:09.323Z,10.23
2018-12-08T23:29:37.789Z,10.31
2018-12-08T23:32:06.455Z,10.31
2018-12-08T23:34:34.832Z,10.15
2018-12-08T23:37:03.414Z,10.05
2018-12-08T23:39:38.730Z,9.89
2018-12-08T23:42:02.307Z,9.88
2018-12-08T23:44:30.753Z,9.87
2018-12-08T23:46:59.232Z,9.86
2018-12-08T23:49:27.653Z,9.99
2018-12-08T23:51:56.132Z,9.88
2018-12-08T23:54:24.543Z,9.82
2018-12-08T23:56:55.039Z,9.79
2018-12-08T23:59:23.779Z,9.74
